createdAt,value
2022-08-22T00:00:11.896Z,52
2022-08-22T00:01:11.932Z,52.0714
2022-08-22T00:02:12.035Z,52.1429
2022-08-22T00:02:49.988Z,52.0714
2022-08-22T00:02:54.721Z,52.0714
2022-08-22T00:02:58.169Z,52.2857
2022-08-22T00:03:00.128Z,52.0714
2022-08-22T00:03:07.955Z,51.9286
2022-08-22T00:03:18.587Z,52.0714
2022-08-22T00:04:12.054Z,52.0714
2022-08-22T00:05:12.097Z,51.9286
2022-08-22T00:06:12.134Z,52
2022-08-22T00:07:12.170Z,52
2022-08-22T00:08:12.211Z,52
2022-08-22T00:09:12.252Z,52.1429
2022-08-22T00:10:12.287Z,52
2022-08-22T00:11:12.335Z,52
2022-08-22T00:12:12.375Z,52
2022-08-22T00:13:12.414Z,52
2022-08-22T00:14:12.462Z,51.9286
2022-08-22T00:15:13.216Z,51.9286
2022-08-22T00:16:12.560Z,51.9286
2022-08-22T00:17:12.608Z,51.8571
2022-08-22T00:18:12.660Z,52
2022-08-22T00:19:12.701Z,52
2022-08-22T00:20:12.738Z,51.9286
2022-08-22T00:21:12.775Z,51.8571
2022-08-22T00:22:12.809Z,51.9286
2022-08-22T00:23:12.852Z,51.9286
2022-08-22T00:24:12.894Z,52
2022-08-22T00:25:24.735Z,52
2022-08-22T00:26:12.978Z,51.9286
2022-08-22T00:27:13.027Z,51.9286
2022-08-22T00:28:13.074Z,51.9286
2022-08-22T00:29:13.116Z,51.9286
2022-08-22T00:30:13.156Z,51.8571
2022-08-22T00:31:13.196Z,51.9286
2022-08-22T00:32:13.236Z,51.9286
2022-08-22T00:33:13.280Z,51.9286
2022-08-22T00:34:13.331Z,51.8571
2022-08-22T00:35:13.369Z,51.8571
2022-08-22T00:36:13.415Z,51.9286
2022-08-22T00:37:13.453Z,51.9286
2022-08-22T00:38:13.495Z,51.9286
2022-08-22T00:39:13.531Z,51.9286
2022-08-22T00:40:13.681Z,51.9286
2022-08-22T00:41:13.622Z,51.9286
2022-08-22T00:42:13.659Z,51.7857
2022-08-22T00:43:13.697Z,51.9286
2022-08-22T00:44:13.741Z,51.9286
2022-08-22T00:45:13.782Z,51.7857
2022-08-22T00:46:13.827Z,51.8571
2022-08-22T00:47:13.864Z,51.9286
2022-08-22T00:48:14.340Z,51.8571
2022-08-22T00:49:13.951Z,51.8571
2022-08-22T00:50:13.989Z,51.8571
2022-08-22T00:51:14.031Z,51.8571
2022-08-22T00:52:14.061Z,51.9286
2022-08-22T00:53:14.106Z,51.8571
2022-08-22T00:54:17.609Z,51.7857
2022-08-22T00:55:14.181Z,51.7857
2022-08-22T00:56:14.222Z,51.8571
2022-08-22T00:57:14.265Z,51.8571
2022-08-22T00:58:14.287Z,51.7857
2022-08-22T00:59:23.947Z,51.7857
2022-08-22T01:00:14.375Z,51.7857
2022-08-22T01:01:14.475Z,51.8571
2022-08-22T01:02:14.456Z,51.8571
2022-08-22T01:03:14.496Z,51.9286
2022-08-22T01:04:14.527Z,51.8571
2022-08-22T01:05:14.574Z,51.9286
2022-08-22T01:06:14.612Z,51.7857
2022-08-22T01:07:14.648Z,51.8571
2022-08-22T01:08:14.687Z,51.8571
2022-08-22T01:09:14.725Z,51.7857
2022-08-22T01:10:14.772Z,51.8571
2022-08-22T01:11:14.811Z,51.7143
2022-08-22T01:12:14.850Z,51.7857
2022-08-22T01:13:14.891Z,51.7143
2022-08-22T01:14:14.924Z,51.7143
2022-08-22T01:15:14.967Z,51.7857
2022-08-22T01:16:15.005Z,51.7857
2022-08-22T01:17:15.044Z,51.6429
2022-08-22T01:18:15.081Z,51.7857
2022-08-22T01:19:15.127Z,51.7857
2022-08-22T01:20:15.165Z,51.8571
2022-08-22T01:21:15.205Z,51.7857
2022-08-22T01:22:15.246Z,51.7143
2022-08-22T01:23:15.292Z,51.7143
2022-08-22T01:24:15.336Z,51.7143
2022-08-22T01:25:15.383Z,51.7857
2022-08-22T01:26:15.415Z,51.7857
2022-08-22T01:27:15.450Z,51.7857
2022-08-22T01:28:15.490Z,51.7857
2022-08-22T01:29:15.531Z,51.7143
2022-08-22T01:30:15.566Z,51.7143
2022-08-22T01:31:15.602Z,51.6429
2022-08-22T01:32:15.643Z,51.6429
2022-08-22T01:33:15.683Z,51.7857
2022-08-22T01:34:15.722Z,51.7857
2022-08-22T01:35:15.761Z,51.7857
2022-08-22T01:36:15.794Z,51.7143
2022-08-22T01:37:15.827Z,51.7143
2022-08-22T01:38:15.865Z,51.7143
2022-08-22T01:39:15.893Z,51.7857
2022-08-22T01:40:16.041Z,51.7857
2022-08-22T01:41:15.975Z,51.7857
2022-08-22T01:42:16.016Z,51.7857
2022-08-22T01:43:16.059Z,51.7857
2022-08-22T01:44:16.095Z,51.7857
2022-08-22T01:45:16.134Z,51.7857
2022-08-22T01:46:19.589Z,51.7857
2022-08-22T01:47:16.216Z,51.7143
2022-08-22T01:48:16.262Z,51.7143
2022-08-22T01:49:16.306Z,51.7143
2022-08-22T01:50:16.347Z,51.7143
2022-08-22T01:51:16.387Z,51.6429
2022-08-22T01:52:18.744Z,51.7143
2022-08-22T01:53:16.468Z,51.6429
2022-08-22T01:54:16.514Z,51.6429
2022-08-22T01:55:16.564Z,51.6429
2022-08-22T01:56:16.607Z,51.7143
2022-08-22T01:57:16.647Z,51.7143
2022-08-22T01:58:16.688Z,51.7857
2022-08-22T01:59:17.633Z,51.7143
2022-08-22T02:00:16.769Z,51.7143
2022-08-22T02:01:16.905Z,51.6429
2022-08-22T02:02:16.867Z,51.7143
2022-08-22T02:03:16.907Z,51.7143
2022-08-22T02:04:16.950Z,51.5714
2022-08-22T02:05:16.994Z,51.6429
2022-08-22T02:06:17.040Z,51.5714
2022-08-22T02:07:17.088Z,51.7143
2022-08-22T02:08:17.130Z,51.6429
2022-08-22T02:09:17.163Z,51.6429
2022-08-22T02:10:17.214Z,51.6429
2022-08-22T02:11:17.255Z,51.7143
2022-08-22T02:12:21.753Z,51.5714
2022-08-22T02:13:17.336Z,51.6429
2022-08-22T02:14:17.374Z,51.6429
2022-08-22T02:15:17.413Z,51.6429
2022-08-22T02:16:17.455Z,51.6429
2022-08-22T02:21:22.710Z,51.5714
2022-08-22T02:27:17.913Z,51.5714
2022-08-22T02:28:17.954Z,51.6429
2022-08-22T02:29:17.992Z,51.5714
2022-08-22T02:30:18.038Z,51.6429
2022-08-22T02:31:18.083Z,51.7143
2022-08-22T02:32:18.128Z,51.6429
2022-08-22T02:33:18.168Z,51.5
2022-08-22T02:34:18.203Z,51.5
2022-08-22T02:35:18.245Z,51.5714
2022-08-22T02:36:18.289Z,51.5714
2022-08-22T02:37:18.335Z,51.6429
2022-08-22T02:38:19.390Z,51.6429
2022-08-22T02:39:18.409Z,51.7857
2022-08-22T02:40:18.505Z,51.5714
2022-08-22T02:41:18.480Z,51.5
2022-08-22T02:42:18.521Z,51.6429
2022-08-22T02:43:18.577Z,51.5714
2022-08-22T02:44:18.601Z,51.6429
2022-08-22T02:45:18.640Z,51.5714
2022-08-22T02:46:18.688Z,51.6429
2022-08-22T02:47:18.726Z,51.5
2022-08-22T02:48:18.767Z,51.4286
2022-08-22T02:49:18.807Z,51.4286
2022-08-22T02:50:18.852Z,51.5
2022-08-22T02:51:18.889Z,51.7143
2022-08-22T02:52:18.928Z,51.5714
2022-08-22T02:53:18.970Z,51.6429
2022-08-22T02:54:19.012Z,51.5
2022-08-22T02:55:19.052Z,51.5
2022-08-22T02:56:19.088Z,51.5
2022-08-22T02:57:19.123Z,51.2857
2022-08-22T02:58:19.166Z,51.2143
2022-08-22T02:59:19.204Z,51.0714
2022-08-22T03:00:31.207Z,51.2857
2022-08-22T03:01:19.333Z,51.3571
2022-08-22T03:02:19.304Z,50.7857
2022-08-22T03:03:19.340Z,50.6429
2022-08-22T03:04:19.377Z,50.3571
2022-08-22T03:05:19.410Z,50.5714
2022-08-22T03:06:19.446Z,50.4286
2022-08-22T03:07:19.482Z,50.5
2022-08-22T03:08:21.046Z,50.5714
2022-08-22T03:09:19.556Z,50.5
2022-08-22T03:10:19.595Z,50.3571
2022-08-22T03:11:19.618Z,50.3571
2022-08-22T03:12:19.654Z,50.3571
2022-08-22T03:13:19.695Z,50.5
2022-08-22T03:14:19.725Z,50.5
2022-08-22T03:15:19.757Z,50.5
2022-08-22T03:16:19.799Z,50.3571
2022-08-22T03:17:19.836Z,50.2857
2022-08-22T03:18:19.874Z,50.5
2022-08-22T03:19:19.918Z,50.6429
2022-08-22T03:20:19.954Z,50.3571
2022-08-22T03:21:19.994Z,50.2857
2022-08-22T03:22:20.029Z,50.2143
2022-08-22T03:23:20.065Z,50.2857
2022-08-22T03:24:20.096Z,50.2143
2022-08-22T03:25:20.136Z,50.2857
2022-08-22T03:26:20.176Z,50.3571
2022-08-22T03:27:32.508Z,50.2143
2022-08-22T03:28:20.255Z,50.5714
2022-08-22T03:29:20.293Z,50.7857
2022-08-22T03:30:20.338Z,50.6429
2022-08-22T03:31:20.377Z,50.7143
2022-08-22T03:32:20.405Z,50.6429
2022-08-22T03:33:20.438Z,50.6429
2022-08-22T03:34:20.463Z,50.9286
2022-08-22T03:35:20.500Z,51.0714
2022-08-22T03:36:20.535Z,50.9286
2022-08-22T03:37:20.576Z,51.2857
2022-08-22T03:38:20.612Z,51.2857
2022-08-22T03:39:20.641Z,50.8571
2022-08-22T03:40:20.785Z,51.1429
2022-08-22T03:41:20.711Z,51.2143
2022-08-22T03:42:20.756Z,51
2022-08-22T03:43:20.799Z,51.2143
2022-08-22T03:44:20.838Z,51
2022-08-22T03:45:20.873Z,50.8571
2022-08-22T03:46:20.918Z,50.9286
2022-08-22T03:47:20.954Z,50.9286
2022-08-22T03:48:20.995Z,50.7143
2022-08-22T03:49:21.030Z,50.4286
2022-08-22T03:50:21.064Z,49.8571
2022-08-22T03:51:21.097Z,49.5714
2022-08-22T03:52:21.135Z,49.2857
2022-08-22T03:53:21.164Z,50.2143
2022-08-22T03:54:21.205Z,48.9286
2022-08-22T03:55:21.245Z,48.7143
2022-08-22T03:56:21.287Z,48.5
2022-08-22T03:57:21.323Z,48.5
2022-08-22T03:58:27.847Z,48.7143
2022-08-22T04:02:27.543Z,48.2857
2022-08-22T04:03:21.542Z,48.2857
2022-08-22T04:07:28.361Z,48.4286
2022-08-22T04:08:25.955Z,48.3571
2022-08-22T04:09:21.755Z,48.4286
2022-08-22T04:10:21.795Z,48.3571
2022-08-22T04:11:21.835Z,48.5
2022-08-22T04:12:21.872Z,48.5
2022-08-22T04:13:24.688Z,48.2857
2022-08-22T04:16:22.031Z,48.2143
2022-08-22T04:17:22.072Z,48.2143
2022-08-22T04:18:22.110Z,48
2022-08-22T04:19:22.151Z,47.9286
2022-08-22T04:20:22.184Z,47.8571
2022-08-22T04:21:22.221Z,47.8571
2022-08-22T04:22:22.261Z,48.0714
2022-08-22T04:23:22.300Z,48.2143
2022-08-22T04:24:22.338Z,48
2022-08-22T04:25:22.375Z,48
2022-08-22T04:26:22.412Z,47.9286
2022-08-22T04:27:22.472Z,47.8571
2022-08-22T04:28:22.493Z,47.7143
2022-08-22T04:29:22.535Z,47.8571
2022-08-22T04:30:22.574Z,48.1429
2022-08-22T04:31:22.618Z,47.9286
2022-08-22T04:32:22.652Z,47.7857
2022-08-22T04:33:22.683Z,47.7857
2022-08-22T04:34:22.719Z,47.9286
2022-08-22T04:35:22.763Z,47.9286
2022-08-22T04:36:22.801Z,48
2022-08-22T04:37:22.837Z,48.2143
2022-08-22T04:38:22.882Z,48.3571
2022-08-22T04:39:22.910Z,48.1429
2022-08-22T04:40:23.005Z,48
2022-08-22T04:41:22.985Z,49.1429
2022-08-22T04:42:32.280Z,50.1429
2022-08-22T04:43:23.109Z,50
2022-08-22T04:44:23.100Z,50.0714
2022-08-22T04:45:23.138Z,50.5714
2022-08-22T04:46:23.180Z,50.5
2022-08-22T04:47:23.217Z,50.5
2022-08-22T04:48:23.245Z,50.9286
2022-08-22T04:49:23.286Z,50.7857
2022-08-22T04:50:23.330Z,51
2022-08-22T04:51:23.365Z,49.5
2022-08-22T04:52:23.403Z,48.9286
2022-08-22T04:53:23.436Z,48.5
2022-08-22T04:54:23.472Z,48.4286
2022-08-22T04:55:23.508Z,48.6429
2022-08-22T04:56:23.549Z,48.2857
2022-08-22T04:57:23.588Z,48.2143
2022-08-22T04:58:23.632Z,48.2143
2022-08-22T04:59:23.662Z,48.3571
2022-08-22T05:00:23.705Z,48
2022-08-22T05:01:23.790Z,48
2022-08-22T05:02:23.813Z,47.2857
2022-08-22T05:03:23.849Z,47.4286
2022-08-22T05:04:23.891Z,47.6429
2022-08-22T05:05:23.929Z,47.9286
2022-08-22T05:06:23.969Z,48.2143
2022-08-22T05:07:24.004Z,48.4286
2022-08-22T05:08:24.037Z,48.0714
2022-08-22T05:09:24.073Z,48.0714
2022-08-22T05:10:24.108Z,48.1429
2022-08-22T05:11:24.143Z,48
2022-08-22T05:12:24.188Z,48.2857
2022-08-22T05:13:24.220Z,48.3571
2022-08-22T05:14:24.259Z,48.2857
2022-08-22T05:15:24.295Z,48.2143
2022-08-22T05:16:24.333Z,48.1429
2022-08-22T05:17:24.368Z,48
2022-08-22T05:18:25.578Z,47.7143
2022-08-22T05:19:28.566Z,47.7857
2022-08-22T05:20:24.469Z,48
2022-08-22T05:21:24.510Z,48.2857
2022-08-22T05:22:24.538Z,48.3571
2022-08-22T05:23:24.580Z,48.7857
2022-08-22T05:24:27.962Z,48.9286
2022-08-22T05:25:24.658Z,49
2022-08-22T05:26:24.696Z,49.0714
2022-08-22T05:27:24.736Z,49
2022-08-22T05:28:24.771Z,49.1429
2022-08-22T05:29:24.810Z,49
2022-08-22T05:30:24.842Z,49.0714
2022-08-22T05:31:24.873Z,49.2143
2022-08-22T05:32:24.909Z,49.2143
2022-08-22T05:33:24.946Z,49.1429
2022-08-22T05:34:24.984Z,49.2857
2022-08-22T05:35:25.022Z,49.3571
2022-08-22T05:38:25.139Z,49.1429
2022-08-22T05:41:25.256Z,49.0714
2022-08-22T05:42:25.298Z,49.2143
2022-08-22T05:46:26.824Z,49.3571
2022-08-22T05:47:25.500Z,49.2857
2022-08-22T05:51:25.653Z,48.8571
2022-08-22T05:52:25.690Z,48.7143
2022-08-22T05:55:25.796Z,48.4286
2022-08-22T05:56:25.831Z,48.6429
2022-08-22T05:57:25.861Z,48.4286
2022-08-22T05:58:25.934Z,48.6429
2022-08-22T05:59:25.936Z,48.7857
2022-08-22T06:00:25.977Z,48.3571
2022-08-22T06:01:26.041Z,48.4286
2022-08-22T06:02:26.055Z,48.7143
2022-08-22T06:03:26.089Z,48.6429
2022-08-22T06:04:26.127Z,48.6429
2022-08-22T06:05:26.165Z,48.3571
2022-08-22T06:06:26.203Z,48.4286
2022-08-22T06:07:26.243Z,48.5714
2022-08-22T06:08:26.281Z,48.3571
2022-08-22T06:09:26.312Z,48.6429
2022-08-22T06:10:26.356Z,48.6429
2022-08-22T06:11:26.393Z,48.5714
2022-08-22T06:12:26.429Z,48.9286
2022-08-22T06:13:26.465Z,48.7143
2022-08-22T06:14:26.504Z,48.9286
2022-08-22T06:15:26.526Z,48.9286
2022-08-22T06:16:26.568Z,49
2022-08-22T06:17:26.597Z,49.2143
2022-08-22T06:18:26.636Z,49.5
2022-08-22T06:19:26.670Z,49.8571
2022-08-22T06:20:26.703Z,49.9286
2022-08-22T06:21:26.743Z,49.9286
2022-08-22T06:22:26.781Z,50.1429
2022-08-22T06:23:26.819Z,50.1429
2022-08-22T06:24:26.857Z,50
2022-08-22T06:25:26.888Z,50.2143
2022-08-22T06:26:26.929Z,50.2143
2022-08-22T06:27:26.971Z,50.4286
2022-08-22T06:28:27.005Z,50.5714
2022-08-22T06:29:27.048Z,50.5714
2022-08-22T06:30:27.079Z,50.7857
2022-08-22T06:31:27.113Z,50.6429
2022-08-22T06:32:44.524Z,50.2857
2022-08-22T06:33:27.183Z,50.5714
2022-08-22T06:34:27.219Z,50.4286
2022-08-22T06:35:27.253Z,50.3571
2022-08-22T06:36:27.295Z,62.4286
2022-08-22T06:37:27.343Z,36.5714
2022-08-22T06:38:27.378Z,41
2022-08-22T06:39:27.413Z,44.6429
2022-08-22T06:40:27.483Z,46.8571
2022-08-22T06:41:27.486Z,47.9286
2022-08-22T06:42:27.516Z,48.5714
2022-08-22T06:43:27.547Z,49
2022-08-22T06:44:27.581Z,49.4286
2022-08-22T06:45:27.616Z,49.7143
2022-08-22T06:46:27.641Z,49.8571
2022-08-22T06:47:27.676Z,49.8571
2022-08-22T06:48:27.717Z,50
2022-08-22T06:49:27.749Z,46.3571
2022-08-22T06:50:27.787Z,47.5714
2022-08-22T06:51:27.822Z,48.5714
2022-08-22T06:52:27.856Z,49.2857
2022-08-22T06:53:27.892Z,49.2143
2022-08-22T06:54:32.511Z,49.6429
2022-08-22T06:55:27.973Z,50.0714
2022-08-22T06:56:28.009Z,50.2857
2022-08-22T06:57:28.051Z,50.6429
2022-08-22T06:58:30.850Z,50.5714
2022-08-22T06:59:28.133Z,50.7143
2022-08-22T07:00:28.199Z,50.7857
2022-08-22T07:01:28.280Z,46.2143
2022-08-22T07:02:28.270Z,47.8571
2022-08-22T07:03:28.299Z,49.2857
2022-08-22T07:04:28.373Z,49.7857
2022-08-22T07:05:28.404Z,50.2857
2022-08-22T07:06:28.456Z,50.6429
2022-08-22T07:07:28.496Z,50.7143
2022-08-22T07:08:28.537Z,50.7857
2022-08-22T07:09:28.587Z,50.7857
2022-08-22T07:10:28.615Z,50.8571
2022-08-22T07:11:28.670Z,50.8571
2022-08-22T07:12:28.708Z,51
2022-08-22T07:13:28.746Z,46.8571
2022-08-22T07:14:28.791Z,48.5
2022-08-22T07:15:28.837Z,49.5
2022-08-22T07:16:28.876Z,50.1429
2022-08-22T07:17:28.918Z,50.5714
2022-08-22T07:18:28.959Z,50.7143
2022-08-22T07:19:29.004Z,50.8571
2022-08-22T07:20:29.048Z,50.9286
2022-08-22T07:21:29.092Z,51.1429
2022-08-22T07:22:29.143Z,51
2022-08-22T07:23:29.183Z,51.3571
2022-08-22T07:24:29.228Z,51.1429
2022-08-22T07:25:29.277Z,51.0714
2022-08-22T07:26:29.317Z,51.0714
2022-08-22T07:27:29.369Z,51.3571
2022-08-22T07:28:36.815Z,51.2143
2022-08-22T07:29:29.459Z,51.2143
2022-08-22T07:30:29.499Z,51.3571
2022-08-22T07:31:31.812Z,51.2857
2022-08-22T07:32:29.601Z,51.3571
2022-08-22T07:33:29.653Z,51.2857
2022-08-22T07:34:29.696Z,51.7857
2022-08-22T07:35:29.741Z,51.5714
2022-08-22T07:36:31.836Z,51.8571
2022-08-22T07:37:29.839Z,51.8571
2022-08-22T07:38:29.885Z,51.7143
2022-08-22T07:39:29.946Z,51.9286
2022-08-22T07:40:29.974Z,51.9286
2022-08-22T07:41:30.019Z,51.7143
2022-08-22T07:42:30.431Z,51.7857
2022-08-22T07:58:22.200Z,52.4286
2022-08-22T07:59:22.266Z,52.4286
2022-08-22T08:00:22.283Z,52.3571
2022-08-22T08:01:22.379Z,52.4286
2022-08-22T08:02:22.386Z,51.1429
2022-08-22T08:03:22.429Z,51.2143
2022-08-22T08:04:22.495Z,51.6429
2022-08-22T08:05:22.528Z,51.7143
2022-08-22T08:06:22.572Z,51.8571
2022-08-22T08:07:22.618Z,52.0714
2022-08-22T08:08:22.692Z,51.9286
2022-08-22T08:09:22.711Z,51.7857
2022-08-22T08:10:22.789Z,51.9286
2022-08-22T08:11:22.828Z,52.2143
2022-08-22T08:12:22.855Z,51.9286
2022-08-22T08:13:22.894Z,51.8571
2022-08-22T08:14:22.935Z,51.7143
2022-08-22T08:15:22.984Z,51.7143
2022-08-22T08:16:23.026Z,52
2022-08-22T08:17:23.101Z,52.0714
2022-08-22T08:18:23.112Z,52.9286
2022-08-22T08:19:23.169Z,51.2857
2022-08-22T08:20:23.257Z,52.2143
2022-08-22T08:21:23.233Z,52.8571
2022-08-22T08:22:23.292Z,52.1429
2022-08-22T08:23:23.856Z,51.0714
2022-08-22T08:24:23.352Z,51.5
2022-08-22T08:25:23.389Z,51.9286
2022-08-22T08:26:23.436Z,51.7857
2022-08-22T08:27:23.493Z,52.1429
2022-08-22T08:28:23.514Z,51.8571
2022-08-22T08:29:23.554Z,51.8571
2022-08-22T08:30:23.714Z,51.7857
2022-08-22T08:31:23.643Z,51.9286
2022-08-22T08:32:23.707Z,52
2022-08-22T08:33:26.359Z,52.1429
2022-08-22T08:34:23.770Z,51.9286
2022-08-22T08:35:23.839Z,52.1429
2022-08-22T08:36:23.857Z,52
2022-08-22T08:37:23.898Z,52.2857
2022-08-22T08:38:23.966Z,51.7143
2022-08-22T08:39:23.987Z,51.7857
2022-08-22T08:40:24.103Z,51.7143
2022-08-22T08:41:24.073Z,51.8571
2022-08-22T08:42:24.111Z,51.7143
2022-08-22T08:43:24.154Z,52.1429
2022-08-22T08:44:24.200Z,52.2857
2022-08-22T08:45:24.260Z,52.2857
2022-08-22T08:46:24.279Z,52.2143
2022-08-22T08:47:24.323Z,52.2143
2022-08-22T08:48:24.365Z,52.5
2022-08-22T08:49:24.402Z,52.2143
2022-08-22T08:50:24.448Z,52.1429
2022-08-22T08:51:24.500Z,52
2022-08-22T08:52:24.642Z,51.9286
2022-08-22T08:53:24.570Z,51.8571
2022-08-22T08:54:24.626Z,51.8571
2022-08-22T08:55:24.689Z,51.8571
2022-08-22T08:56:25.416Z,51.8571
2022-08-22T08:57:24.740Z,51.8571
2022-08-22T08:58:24.782Z,51.9286
2022-08-22T08:59:24.829Z,52.0714
2022-08-22T09:00:28.996Z,52.2143
2022-08-22T09:01:27.734Z,52.6429
2022-08-22T09:02:24.978Z,52.5714
2022-08-22T09:03:30.791Z,52.5714
2022-08-22T09:04:25.114Z,52.5714
2022-08-22T09:05:25.154Z,52.5714
2022-08-22T09:06:25.244Z,52.5714
2022-08-22T09:07:25.269Z,52.5714
2022-08-22T09:08:25.327Z,52.5714
2022-08-22T09:09:25.385Z,52.5714
2022-08-22T09:10:27.244Z,52.5714
2022-08-22T09:11:28.477Z,52.5714
2022-08-22T09:12:25.557Z,52.5714
2022-08-22T09:13:25.640Z,52.5714
2022-08-22T09:14:26.344Z,52.5714
2022-08-22T09:15:25.752Z,52.5714
2022-08-22T09:16:25.784Z,52.5714
2022-08-22T09:17:25.844Z,52.5714
2022-08-22T09:18:25.901Z,52.5714
2022-08-22T09:19:25.958Z,52.5714
2022-08-22T09:20:26.039Z,52.5714
2022-08-22T09:21:30.779Z,52.5714
2022-08-22T09:22:26.138Z,52.5714
2022-08-22T09:23:26.212Z,52.5714
2022-08-22T09:24:26.254Z,52.5714
2022-08-22T09:25:28.757Z,52.5714
2022-08-22T09:26:26.409Z,52.5714
2022-08-22T09:27:26.427Z,52.5714
2022-08-22T09:28:28.197Z,52.5714
2022-08-22T09:29:28.988Z,52.5714
2022-08-22T09:30:28.607Z,52.5714
2022-08-22T09:31:47.581Z,52.5714
2022-08-22T09:32:26.718Z,52.5714
2022-08-22T09:33:28.287Z,52.5714
2022-08-22T09:34:26.834Z,52.5714
2022-08-22T09:35:26.894Z,52.5714
2022-08-22T09:36:26.969Z,52.5714
2022-08-22T09:37:27.011Z,52.5714
2022-08-22T09:38:27.068Z,52.5714
2022-08-22T09:39:27.126Z,52.5714
2022-08-22T09:41:27.240Z,52.5714
2022-08-22T09:42:27.309Z,52.5714
2022-08-22T09:43:27.349Z,52.5714
2022-08-22T09:44:27.401Z,52.5714
2022-08-22T09:45:27.477Z,52.5714
2022-08-22T09:46:31.545Z,52.5714
2022-08-22T09:47:27.574Z,52.5714
2022-08-22T09:48:27.630Z,52.5714
2022-08-22T09:49:27.689Z,52.5714
2022-08-22T09:50:29.538Z,52.5714
2022-08-22T09:51:32.540Z,52.5714
2022-08-22T09:52:33.175Z,52.5714
2022-08-22T09:53:27.913Z,52.5714
2022-08-22T09:54:31.663Z,52.5714
2022-08-22T09:55:35.295Z,52.5714
2022-08-22T09:56:28.987Z,52.5714
2022-08-22T09:57:28.148Z,52.5714
2022-08-22T09:58:28.207Z,52.5714
